createdAt,value
2018-06-18T05:15:15.596Z,24.4
2018-06-18T05:16:05.668Z,24.4
2018-06-18T05:16:55.477Z,24.4
2018-06-18T05:17:45.532Z,24.4
2018-06-18T05:18:35.609Z,24.4
2018-06-18T05:19:25.947Z,24.4
2018-06-18T05:20:15.734Z,24.4
2018-06-18T05:21:06.115Z,24.4
2018-06-18T05:21:56.152Z,24.4
2018-06-18T05:22:45.994Z,24.4
2018-06-18T05:23:35.716Z,24.4
2018-06-18T05:24:26.065Z,24.4
2018-06-18T05:25:16.387Z,24.4
2018-06-18T05:26:06.438Z,24.4
2018-06-18T05:26:55.993Z,24.4
2018-06-18T05:27:45.755Z,24.4
2018-06-18T05:28:36.795Z,24.4
2018-06-18T05:29:26.423Z,24.4
2018-06-18T05:30:16.221Z,24.4
2018-06-18T05:31:06.568Z,24.4
2018-06-18T05:31:56.620Z,24.4
2018-06-18T05:32:46.977Z,24.4
2018-06-18T05:33:36.725Z,24.4
2018-06-18T05:34:26.815Z,24.4
2018-06-18T05:35:16.730Z,24.4
2018-06-18T05:36:06.460Z,24.4
2018-06-18T05:36:56.427Z,24.4
2018-06-18T05:37:47.065Z,24.4
2018-06-18T05:38:37.370Z,24.4
2018-06-18T05:39:27.509Z,24.4
2018-06-18T05:40:17.057Z,24.4
2018-06-18T05:41:07.306Z,24.4
2018-06-18T05:41:57.637Z,24.4
2018-06-18T05:42:47.720Z,24.4
2018-06-18T05:43:37.547Z,24.4
2018-06-18T05:44:27.297Z,24.4
2018-06-18T05:45:17.041Z,24.4
2018-06-18T05:46:07.936Z,24.4
2018-06-18T05:46:57.270Z,24.4
2018-06-18T05:47:47.038Z,24.4
2018-06-18T05:48:37.371Z,24.4
2018-06-18T05:49:27.473Z,24.4
2018-06-18T05:50:17.814Z,24.4
2018-06-18T05:51:08.357Z,24.4
2018-06-18T05:51:57.874Z,24.4
2018-06-18T05:52:48.454Z,24.3
2018-06-18T05:53:38.280Z,24.4
2018-06-18T05:54:28.605Z,24.4
2018-06-18T05:55:18.169Z,24.4
2018-06-18T05:56:08.421Z,24.3
2018-06-18T05:56:58.236Z,24.4
2018-06-18T05:57:48.845Z,24.4
2018-06-18T05:58:38.720Z,24.4
2018-06-18T05:59:28.963Z,24.3
2018-06-18T06:00:18.218Z,24.3
2018-06-18T06:01:08.834Z,24.4
2018-06-18T06:01:58.918Z,24.4
2018-06-18T06:02:48.469Z,24.3
2018-06-18T06:03:39.002Z,24.4
2018-06-18T06:04:29.389Z,24.3
2018-06-18T06:05:19.426Z,24.3
2018-06-18T06:06:08.957Z,24.3
2018-06-18T06:06:59.540Z,24.3
2018-06-18T06:07:49.307Z,24.4
2018-06-18T06:08:39.383Z,24.3
2018-06-18T06:09:29.556Z,24.3
2018-06-18T06:10:19.511Z,24.4
2018-06-18T06:11:09.301Z,24.3
2018-06-18T06:11:59.947Z,24.3
2018-06-18T06:12:50.319Z,24.3
2018-06-18T06:13:40.068Z,24.3
2018-06-18T06:14:29.838Z,24.3
2018-06-18T06:15:19.883Z,24.3
2018-06-18T06:16:10.246Z,24.3
2018-06-18T06:17:00.127Z,24.3
2018-06-18T06:17:50.351Z,24.3
2018-06-18T06:18:39.882Z,24.3
2018-06-18T06:19:29.917Z,24.3
2018-06-18T06:20:20.555Z,24.3
2018-06-18T06:21:10.597Z,24.3
2018-06-18T06:22:00.152Z,24.3
2018-06-18T06:22:50.713Z,24.3
2018-06-18T06:23:40.531Z,24.3
2018-06-18T06:24:30.877Z,24.3
2018-06-18T06:25:20.930Z,24.3
2018-06-18T06:26:10.981Z,24.3
2018-06-18T06:27:01.045Z,24.3
2018-06-18T06:27:51.110Z,24.3
2018-06-18T06:28:41.181Z,24.3
2018-06-18T06:29:31.545Z,24.3
2018-06-18T06:30:21.026Z,24.3
2018-06-18T06:31:11.148Z,24.3
2018-06-18T06:32:01.441Z,24.3
2018-06-18T06:32:51.266Z,24.3
2018-06-18T06:33:41.555Z,24.3
2018-06-18T06:34:31.610Z,24.3
2018-06-18T06:35:21.409Z,24.3
2018-06-18T06:36:11.493Z,24.3
2018-06-18T06:37:01.265Z,24.3
2018-06-18T06:37:51.933Z,24.3
2018-06-18T06:38:41.931Z,24.3
2018-06-18T06:39:32.028Z,24.3
2018-06-18T06:40:22.055Z,24.3
2018-06-18T06:41:12.117Z,24.3
2018-06-18T06:42:02.212Z,24.3
2018-06-18T06:42:52.285Z,24.3
2018-06-18T06:43:42.046Z,24.3
2018-06-18T06:44:32.395Z,24.3
2018-06-18T06:45:22.170Z,24.3
2018-06-18T06:46:12.225Z,24.3
2018-06-18T06:47:02.290Z,24.3
2018-06-18T06:47:52.639Z,24.3
2018-06-18T06:48:42.720Z,24.3
2018-06-18T06:49:32.763Z,24.3
2018-06-18T06:50:22.825Z,24.3
2018-06-18T06:51:12.879Z,24.3
2018-06-18T06:52:02.395Z,24.3
2018-06-18T06:52:53.001Z,24.3
2018-06-18T06:53:42.507Z,24.3
2018-06-18T06:54:32.616Z,24.3
2018-06-18T06:55:23.224Z,24.3
2018-06-18T06:56:13.022Z,24.3
2018-06-18T06:57:03.332Z,24.3
2018-06-18T06:57:53.116Z,24.3
2018-06-18T06:58:43.281Z,24.3
2018-06-18T06:59:33.541Z,24.3
2018-06-18T07:00:23.044Z,24.3
2018-06-18T07:01:13.851Z,24.3
2018-06-18T07:02:03.454Z,24.3
2018-06-18T07:02:53.226Z,24.3
2018-06-18T07:03:43.571Z,24.2
2018-06-18T07:04:33.628Z,24.3
2018-06-18T07:05:23.997Z,24
2018-06-18T07:06:13.483Z,34.9
2018-06-18T07:07:04.109Z,50
2018-06-18T07:07:53.706Z,53.6
2018-06-18T07:08:43.959Z,51.4
2018-06-18T07:09:34.009Z,49
2018-06-18T07:10:24.370Z,47.9
2018-06-18T07:11:13.604Z,47.1
2018-06-18T07:12:04.493Z,46.5
2018-06-18T07:12:54.562Z,45.9
2018-06-18T07:13:44.298Z,45.4
2018-06-18T07:14:34.129Z,44.9
2018-06-18T07:15:24.726Z,44.4
2018-06-18T07:16:14.559Z,43.9
2018-06-18T07:17:04.881Z,43.5
2018-06-18T07:17:54.925Z,43
2018-06-18T07:18:44.979Z,42.6
2018-06-18T07:19:34.775Z,42.2
2018-06-18T07:20:24.883Z,41.8
2018-06-18T07:21:14.943Z,41.8
2018-06-18T07:22:05.257Z,41
2018-06-18T07:22:55.309Z,50.6
2018-06-18T07:23:45.075Z,55.1
2018-06-18T07:24:35.227Z,55.3
2018-06-18T07:25:25.496Z,53.6
2018-06-18T07:26:15.583Z,50.3
2018-06-18T07:27:05.473Z,47.9
2018-06-18T07:27:55.127Z,47
2018-06-18T07:28:45.189Z,46.4
2018-06-18T07:29:35.535Z,45.9
2018-06-18T07:30:26.156Z,45.5
2018-06-18T07:31:15.943Z,44.9
2018-06-18T07:32:06.084Z,44.5
2018-06-18T07:32:55.780Z,44
2018-06-18T07:33:46.168Z,43.6
2018-06-18T07:34:35.930Z,43.1
2018-06-18T07:35:26.323Z,42.8
2018-06-18T07:36:16.088Z,42.4
2018-06-18T07:37:05.281Z,41.9
2018-06-18T07:37:56.468Z,41.6
2018-06-18T07:38:46.547Z,42
2018-06-18T07:39:36.580Z,48.7
2018-06-18T07:40:25.878Z,55.6
2018-06-18T07:41:16.705Z,57.2
2018-06-18T07:42:06.500Z,57
2018-06-18T07:42:56.554Z,54.9
2018-06-18T07:43:46.885Z,52.1
2018-06-18T07:44:36.414Z,50.6
2018-06-18T07:45:26.791Z,51.3
2018-06-18T07:46:17.082Z,53.1
2018-06-18T07:47:06.623Z,54.6
2018-06-18T07:47:57.209Z,55.2
2018-06-18T07:48:46.480Z,54.3
2018-06-18T07:49:37.360Z,52.9
2018-06-18T07:50:27.144Z,52.1
2018-06-18T07:51:16.907Z,52
2018-06-18T07:52:07.563Z,52.8
2018-06-18T07:52:57.599Z,53.8
2018-06-18T07:53:47.695Z,54.6
2018-06-18T07:54:37.431Z,54.9
2018-06-18T07:55:27.519Z,54.9
2018-06-18T07:56:17.552Z,54.7
2018-06-18T07:57:07.379Z,54.6
2018-06-18T07:57:57.444Z,54.8
2018-06-18T07:58:47.764Z,55.3
2018-06-18T07:59:37.613Z,55.7
2018-06-18T08:00:27.590Z,56.1
2018-06-18T08:01:18.222Z,56.4
2018-06-18T08:02:08.300Z,56.6
2018-06-18T08:02:58.337Z,56.7
2018-06-18T08:03:48.141Z,56.8
2018-06-18T08:04:38.002Z,56.9
2018-06-18T08:05:28.545Z,57.1
2018-06-18T08:06:18.591Z,57.4
2018-06-18T08:07:08.661Z,57.6
2018-06-18T08:08:48.783Z,57.9
2018-06-18T08:09:38.902Z,58.1
2018-06-18T08:10:28.675Z,58.3
2018-06-18T08:11:18.759Z,58.4
2018-06-18T08:12:09.077Z,58.6
2018-06-18T08:12:59.142Z,58.9
2018-06-18T08:13:49.202Z,59.1
2018-06-18T08:14:38.967Z,59.4
2018-06-18T08:15:29.065Z,59.6
2018-06-18T08:16:18.844Z,59.8
2018-06-18T08:17:09.436Z,59.9
2018-06-18T08:17:59.245Z,60.1
2018-06-18T08:18:49.572Z,60.3
2018-06-18T08:19:39.633Z,60.4
2018-06-18T08:20:28.947Z,60.6
2018-06-18T08:21:19.758Z,60.8
2018-06-18T08:22:09.814Z,60.9
2018-06-18T08:22:59.887Z,61.1
2018-06-18T08:23:50.462Z,61.2
2018-06-18T08:24:39.825Z,61.4
2018-06-18T08:25:29.242Z,61.5
2018-06-18T08:26:20.187Z,61.7
2018-06-18T08:27:09.974Z,61.8
2018-06-18T08:28:00.275Z,61.9
2018-06-18T08:28:50.334Z,61.9
2018-06-18T08:29:40.152Z,62.1
2018-06-18T08:30:30.491Z,62.2
2018-06-18T08:31:20.517Z,62.3
2018-06-18T08:32:10.039Z,62.4
2018-06-18T08:32:59.831Z,62.5
2018-06-18T08:33:50.733Z,62.6
2018-06-18T08:34:40.593Z,62.8
2018-06-18T08:35:30.573Z,62.9
2018-06-18T08:36:21.284Z,62.9
2018-06-18T08:37:10.437Z,62.1
2018-06-18T08:38:01.052Z,60.8
2018-06-18T08:38:51.139Z,59.5
2018-06-18T08:39:40.614Z,58.8
2018-06-18T08:40:30.466Z,59.4
2018-06-18T08:41:21.289Z,60.7
2018-06-18T08:42:11.110Z,61.9
2018-06-18T08:43:01.161Z,62.6
2018-06-18T08:43:51.500Z,62.8
2018-06-18T08:44:41.564Z,62.6
2018-06-18T08:45:31.598Z,62.4
2018-06-18T08:46:21.150Z,62.4
2018-06-18T08:47:11.712Z,62.6
2018-06-18T08:48:01.525Z,63.1
2018-06-18T08:48:51.942Z,63.6
2018-06-18T08:49:41.958Z,63.9
2018-06-18T08:50:32.073Z,64.2
2018-06-18T08:51:21.248Z,64.3
2018-06-18T08:52:11.967Z,64.4
2018-06-18T08:53:01.623Z,63.6
2018-06-18T08:53:52.279Z,62.3
2018-06-18T08:54:41.779Z,61.4
2018-06-18T08:55:32.224Z,61.4
2018-06-18T08:56:22.469Z,62.1
2018-06-18T08:57:12.517Z,63
2018-06-18T08:58:02.121Z,63.8
2018-06-18T08:58:52.636Z,64.3
2018-06-18T08:59:42.145Z,64.3
2018-06-18T09:00:32.766Z,64
2018-06-18T09:01:22.847Z,63.9
2018-06-18T09:02:12.902Z,63.9
2018-06-18T09:03:02.957Z,64.2
2018-06-18T09:03:53.030Z,64.6
2018-06-18T09:04:42.898Z,64.9
2018-06-18T09:05:33.173Z,65
2018-06-18T09:06:22.681Z,64.9
2018-06-18T09:07:13.299Z,64.1
2018-06-18T09:08:02.588Z,62.8
2018-06-18T09:08:53.195Z,61.8
2018-06-18T09:09:42.893Z,61.8
2018-06-18T09:10:32.923Z,62.8
2018-06-18T09:11:23.395Z,63.8
2018-06-18T09:12:12.819Z,64.6
2018-06-18T09:13:02.894Z,65.1
2018-06-18T09:13:53.329Z,65.1
2018-06-18T09:14:43.846Z,64.8
2018-06-18T09:15:33.081Z,64.1
2018-06-18T09:16:23.161Z,63
2018-06-18T09:17:13.754Z,62.2
2018-06-18T09:18:03.574Z,62.1
2018-06-18T09:18:53.365Z,62.8
2018-06-18T09:19:43.779Z,64.1
2018-06-18T09:20:34.057Z,65.2
2018-06-18T09:21:24.370Z,65.8
2018-06-18T09:22:14.145Z,66
2018-06-18T09:23:04.207Z,65.9
2018-06-18T09:23:54.299Z,65.8
2018-06-18T09:24:44.346Z,66
2018-06-18T09:25:34.690Z,66.4
2018-06-18T09:26:24.206Z,66.9
2018-06-18T09:27:14.828Z,67.6
2018-06-18T09:28:04.323Z,67.9
2018-06-18T09:28:54.946Z,67.8
2018-06-18T09:29:44.730Z,66.6
2018-06-18T09:30:34.780Z,65
2018-06-18T09:31:24.301Z,63.6
2018-06-18T09:32:16.284Z,62.7
2018-06-18T09:33:05.275Z,62.4
2018-06-18T09:33:55.029Z,62.5
2018-06-18T09:34:45.401Z,62.7
2018-06-18T09:35:35.247Z,62.4
2018-06-18T09:36:25.312Z,61.9
2018-06-18T09:37:15.705Z,61.2
2018-06-18T09:38:05.702Z,60.4
2018-06-18T09:38:55.771Z,59.4
2018-06-18T09:40:35.308Z,58
2018-06-18T09:41:25.902Z,57.5
2018-06-18T09:42:15.695Z,57.1
2018-06-18T09:43:05.762Z,56.7
2018-06-18T09:43:56.124Z,56.2
2018-06-18T09:44:45.687Z,55.6
2018-06-18T09:45:36.245Z,55
2018-06-18T09:46:25.806Z,54.4
2018-06-18T09:47:16.359Z,53.9
2018-06-18T09:48:06.782Z,53.5
2018-06-18T09:48:56.190Z,53.1
2018-06-18T09:49:46.074Z,52.6
2018-06-18T09:50:36.662Z,51.9
2018-06-18T09:51:26.676Z,51.3
2018-06-18T09:52:16.753Z,50.6
2018-06-18T09:53:06.529Z,50
2018-06-18T09:53:56.637Z,49.4
2018-06-18T09:54:46.654Z,48.8
2018-06-18T09:55:37.110Z,48.2
2018-06-18T09:56:27.078Z,47.7
2018-06-18T09:57:16.853Z,47.3
2018-06-18T09:58:06.367Z,46.7
2018-06-18T09:58:56.499Z,46.3
2018-06-18T09:59:47.302Z,45.8
2018-06-18T10:00:37.392Z,45.3
2018-06-18T10:01:26.856Z,44.9
2018-06-18T10:02:17.715Z,44.6
2018-06-18T10:03:07.616Z,44.2
2018-06-18T10:03:57.648Z,43.8
2018-06-18T10:04:47.445Z,43.4
2018-06-18T10:05:37.483Z,43.1
2018-06-18T10:06:27.804Z,42.7
2018-06-18T10:07:17.349Z,42.4
2018-06-18T10:08:07.532Z,42
2018-06-18T10:08:58.034Z,41.7
2018-06-18T10:09:48.068Z,41.4
2018-06-18T10:10:37.515Z,41.1
2018-06-18T10:11:28.232Z,40.8
2018-06-18T10:12:18.266Z,40.5
2018-06-18T10:13:08.383Z,40.3
2018-06-18T10:13:58.471Z,39.9
2018-06-18T10:14:48.486Z,39.6
2018-06-18T10:15:38.235Z,39.3
2018-06-18T10:16:28.632Z,39.1
2018-06-18T10:17:18.643Z,38.9
2018-06-18T10:18:08.171Z,38.7
2018-06-18T10:18:58.780Z,38.4
2018-06-18T10:19:48.615Z,38.2
2018-06-18T10:20:38.922Z,38
2018-06-18T10:21:28.695Z,37.8
2018-06-18T10:22:19.056Z,37.6
2018-06-18T10:23:09.122Z,37.4
2018-06-18T10:23:59.221Z,37.1
2018-06-18T10:24:48.773Z,36.9
2018-06-18T10:25:38.778Z,36.7
2018-06-18T10:26:28.817Z,36.5
2018-06-18T10:27:18.666Z,36.3
2018-06-18T10:28:08.913Z,36.1
2018-06-18T10:28:59.292Z,35.9
2018-06-18T10:29:49.084Z,35.8
2018-06-18T10:30:39.390Z,35.6
2018-06-18T10:31:29.729Z,35.5
2018-06-18T10:32:19.541Z,35.3
2018-06-18T10:33:09.615Z,35.2
2018-06-18T10:33:59.711Z,35
2018-06-18T10:34:49.720Z,34.8
2018-06-18T10:35:39.813Z,34.7
2018-06-18T10:36:29.588Z,34.6
2018-06-18T10:37:19.638Z,34.4
2018-06-18T10:38:10.275Z,34.3
2018-06-18T10:39:00.327Z,34.1
2018-06-18T10:39:50.386Z,34
2018-06-18T10:40:40.447Z,33.9
2018-06-18T10:41:30.902Z,33.8
2018-06-18T10:42:20.588Z,33.6
2018-06-18T10:43:10.103Z,33.5
2018-06-18T10:44:00.444Z,33.3
2018-06-18T10:44:50.758Z,33.3
2018-06-18T10:45:40.870Z,33.1
2018-06-18T10:46:30.886Z,33
2018-06-18T10:47:20.947Z,32.9
2018-06-18T10:48:10.729Z,32.8
2018-06-18T10:49:00.769Z,32.6
2018-06-18T10:49:51.149Z,32.6
2018-06-18T10:50:40.951Z,32.4
2018-06-18T10:51:31.286Z,32.3
2018-06-18T10:52:21.353Z,32.3
2018-06-18T10:53:10.575Z,32.1
2018-06-18T10:54:01.485Z,32.1
2018-06-18T10:54:51.529Z,31.9
2018-06-18T10:55:41.590Z,31.8
2018-06-18T10:56:31.686Z,31.7
2018-06-18T10:57:21.178Z,31.6
2018-06-18T10:58:11.529Z,31.5
2018-06-18T10:59:01.590Z,31.4
2018-06-18T10:59:51.940Z,31.4
2018-06-18T11:00:41.434Z,31.3
2018-06-18T11:01:31.792Z,31.1
2018-06-18T11:02:21.537Z,31.1
2018-06-18T11:03:11.619Z,34.3
2018-06-18T11:04:01.752Z,44.9
2018-06-18T11:04:51.749Z,59.8
2018-06-18T11:05:42.079Z,62.6
2018-06-18T11:06:32.229Z,60.7
2018-06-18T11:07:22.502Z,55.9
2018-06-18T11:09:02.604Z,51
2018-06-18T11:09:51.930Z,50.4
2018-06-18T11:10:42.197Z,49.9
2018-06-18T11:11:32.821Z,49.9
2018-06-18T11:12:22.879Z,56.7
2018-06-18T11:13:12.949Z,62.6
2018-06-18T11:14:03.006Z,64.7
2018-06-18T11:14:52.755Z,65.4
2018-06-18T11:15:42.314Z,64
2018-06-18T11:16:36.226Z,62
2018-06-18T11:17:27.334Z,60.7
2018-06-18T11:18:12.755Z,61.4
2018-06-18T11:19:03.382Z,63
2018-06-18T11:19:52.885Z,64.8
2018-06-18T11:20:43.516Z,65.9
2018-06-18T11:21:33.295Z,66.4
2018-06-18T11:22:23.400Z,66.1
2018-06-18T11:23:13.438Z,65.7
2018-06-18T11:24:03.505Z,65.5
2018-06-18T11:24:53.561Z,65.8
2018-06-18T11:25:42.565Z,66.3
2018-06-18T11:26:34.912Z,66.9
2018-06-18T11:27:24.474Z,67.4
2018-06-18T11:28:14.588Z,67.6
2018-06-18T11:29:03.870Z,67.6
2018-06-18T11:29:54.062Z,67.5
2018-06-18T11:30:43.502Z,67.5
2018-06-18T11:31:34.324Z,67.6
2018-06-18T11:32:24.665Z,67.8
2018-06-18T11:33:14.475Z,68.1
2018-06-18T11:34:04.257Z,68.3
2018-06-18T11:34:54.616Z,68.4
2018-06-18T11:35:45.079Z,68.4
2018-06-18T11:36:34.442Z,68.4
2018-06-18T11:37:24.799Z,68.4
2018-06-18T11:38:14.565Z,68.5
2018-06-18T11:39:04.351Z,68.6
2018-06-18T11:39:54.984Z,68.7
2018-06-18T11:40:45.301Z,68.7
2018-06-18T11:41:35.123Z,68.8
2018-06-18T11:42:25.491Z,68.8
2018-06-18T11:43:15.329Z,68.9
2018-06-18T11:44:05.299Z,68.9
2018-06-18T11:44:55.129Z,68.9
2018-06-18T11:45:45.623Z,68.9
2018-06-18T11:46:35.544Z,69
2018-06-18T11:47:25.548Z,69.1
2018-06-18T11:48:16.332Z,69.1
2018-06-18T11:49:05.423Z,69.1
2018-06-18T11:49:55.261Z,69.1
2018-06-18T11:50:45.794Z,69.1
2018-06-18T11:51:35.598Z,69.1
2018-06-18T11:52:25.923Z,69.1
2018-06-18T11:53:15.730Z,69
2018-06-18T11:54:06.085Z,69
2018-06-18T11:54:56.195Z,69
2018-06-18T11:55:46.275Z,69.1
2018-06-18T11:56:35.711Z,69.1
2018-06-18T11:57:26.339Z,69.1
2018-06-18T11:58:16.542Z,69.1
2018-06-18T11:59:06.441Z,69.1
2018-06-18T11:59:55.959Z,69.1
2018-06-18T12:00:46.558Z,69.1
2018-06-18T12:01:36.735Z,69.1
2018-06-18T12:02:26.684Z,69.1
2018-06-18T12:03:16.034Z,69.1
2018-06-18T12:04:06.828Z,69.1
2018-06-18T12:04:56.606Z,69.1
2018-06-18T12:05:46.396Z,69
2018-06-18T12:06:36.186Z,69
2018-06-18T12:07:26.962Z,68.9
2018-06-18T12:08:17.132Z,68.9
2018-06-18T12:09:06.946Z,68.9
2018-06-18T12:09:57.939Z,68.9
2018-06-18T12:10:47.335Z,68.9
2018-06-18T12:11:36.877Z,68.9
2018-06-18T12:12:27.480Z,68.8
2018-06-18T12:13:17.525Z,68.8
2018-06-18T12:14:07.626Z,68.8
2018-06-18T12:14:57.678Z,68.8
2018-06-18T12:15:47.733Z,68.8
2018-06-18T12:16:36.784Z,68.8
2018-06-18T12:17:27.583Z,68.7
2018-06-18T12:18:17.660Z,68.7
2018-06-18T12:19:07.980Z,68.7
2018-06-18T12:19:57.499Z,68.6
2018-06-18T12:20:48.110Z,68.6
2018-06-18T12:21:37.651Z,68.6
2018-06-18T12:22:27.714Z,68.6
2018-06-18T12:23:18.302Z,68.5
2018-06-18T12:24:08.100Z,68.4
2018-06-18T12:24:58.194Z,68.4
2018-06-18T12:25:48.308Z,68.3
2018-06-18T12:26:38.050Z,68.3
2018-06-18T12:27:28.626Z,68.3
2018-06-18T12:28:18.328Z,68.3
2018-06-18T12:29:08.758Z,68.3
2018-06-18T12:29:58.271Z,68.2
2018-06-18T12:30:48.582Z,68.1
2018-06-18T12:31:38.693Z,68.1
2018-06-18T12:32:28.712Z,68.1
2018-06-18T12:33:19.048Z,68.1
2018-06-18T12:34:09.124Z,68
2018-06-18T12:34:59.179Z,67.9
2018-06-18T12:35:49.050Z,67.9
2018-06-18T12:36:39.065Z,67.8
2018-06-18T12:37:29.114Z,67.8
2018-06-18T12:38:19.460Z,67.7
2018-06-18T12:39:09.057Z,67.8
2018-06-18T12:39:59.568Z,67.8
2018-06-18T12:40:49.642Z,67.7
2018-06-18T12:41:38.867Z,67.6
2018-06-18T12:42:29.492Z,67.6
2018-06-18T12:43:19.819Z,67.4
2018-06-18T12:44:09.891Z,67.4
2018-06-18T12:44:59.670Z,67.3
2018-06-18T12:45:50.179Z,67.1
2018-06-18T12:46:40.352Z,67.1
2018-06-18T12:47:30.001Z,66.8
2018-06-18T12:48:20.343Z,66.3
2018-06-18T12:49:10.275Z,65.6
2018-06-18T12:50:00.327Z,64.9
2018-06-18T12:50:50.120Z,64.3
2018-06-18T12:51:40.468Z,63.6
2018-06-18T12:52:30.520Z,63.3
2018-06-18T12:53:21.349Z,63.1
2018-06-18T12:54:10.664Z,62.6
2018-06-18T12:55:00.729Z,61.9
2018-06-18T12:55:50.788Z,61.1
2018-06-18T12:56:40.862Z,60.6
2018-06-18T12:57:30.916Z,60.3
2018-06-18T12:58:20.461Z,60.1
2018-06-18T12:59:10.254Z,59.8
2018-06-18T13:00:00.653Z,58.9
2018-06-18T13:00:50.908Z,58.1
2018-06-18T13:01:40.963Z,57.3
2018-06-18T13:02:30.773Z,56.6
2018-06-18T13:03:21.733Z,55.8
2018-06-18T13:04:11.450Z,55.1
2018-06-18T13:05:01.255Z,54.4
2018-06-18T13:05:51.575Z,53.8
2018-06-18T13:06:41.660Z,53.2
2018-06-18T13:07:31.712Z,52.5
2018-06-18T13:09:11.571Z,51.3
2018-06-18T13:10:02.062Z,50.8
2018-06-18T13:10:51.401Z,50.1
2018-06-18T13:11:42.057Z,49.6
2018-06-18T13:12:31.529Z,49.1
2018-06-18T13:13:21.901Z,48.6
2018-06-18T13:14:12.247Z,48.1
2018-06-18T13:15:01.737Z,47.7
2018-06-18T13:15:52.349Z,47.3
2018-06-18T13:16:42.167Z,46.8
2018-06-18T13:17:32.263Z,46.4
2018-06-18T13:18:36.911Z,45.9
2018-06-18T13:19:11.843Z,45.4
2018-06-18T13:20:02.431Z,45.1
2018-06-18T13:20:52.720Z,44.8
2018-06-18T13:21:42.920Z,44.4
2018-06-18T13:22:32.576Z,44.1
2018-06-18T13:23:22.970Z,43.7
2018-06-18T13:24:13.019Z,43.4
2018-06-18T13:25:03.090Z,43
2018-06-18T13:25:53.120Z,42.7
2018-06-18T13:26:42.627Z,42.4
2018-06-18T13:27:32.908Z,42.1
2018-06-18T13:28:23.534Z,41.8
2018-06-18T13:29:13.362Z,41.4
2018-06-18T13:30:02.636Z,41.1
2018-06-18T13:30:53.508Z,40.8
2018-06-18T13:31:43.588Z,40.6
2018-06-18T13:32:32.801Z,40.3
2018-06-18T13:33:23.456Z,40
2018-06-18T13:34:12.941Z,39.8
2018-06-18T13:35:03.614Z,39.6
2018-06-18T13:35:53.650Z,39.3
2018-06-18T13:36:43.444Z,39.1
2018-06-18T13:37:33.768Z,38.8
2018-06-18T13:38:23.789Z,38.6
2018-06-18T13:39:14.145Z,38.4
2018-06-18T13:40:04.270Z,38.1
2018-06-18T13:40:53.993Z,37.9
2018-06-18T13:41:44.397Z,37.7
2018-06-18T13:42:34.425Z,37.4
2018-06-18T13:43:24.477Z,37.3
2018-06-18T13:44:14.596Z,37
2018-06-18T13:45:04.320Z,36.8
2018-06-18T13:45:54.397Z,36.6
2018-06-18T13:46:44.747Z,36.5
2018-06-18T13:47:34.794Z,36.3
2018-06-18T13:48:24.020Z,36.2
2018-06-18T13:49:14.640Z,36
2018-06-18T13:50:04.420Z,35.9
2018-06-18T13:50:54.777Z,35.7
2018-06-18T13:51:44.270Z,35.6
2018-06-18T13:52:35.028Z,35.4
2018-06-18T13:53:24.981Z,35.3
2018-06-18T13:54:14.201Z,35.1
2018-06-18T13:55:05.381Z,35
2018-06-18T13:55:55.180Z,34.9
2018-06-18T13:56:45.217Z,34.8
2018-06-18T13:57:35.293Z,34.6
2018-06-18T13:58:25.088Z,34.4
2018-06-18T13:59:15.691Z,34.4
2018-06-18T14:00:05.201Z,34.2
2018-06-18T14:00:55.833Z,34.1
2018-06-18T14:01:45.873Z,33.9
2018-06-18T14:02:35.669Z,33.9
2018-06-18T14:03:25.520Z,33.7
2018-06-18T14:04:15.814Z,33.6
2018-06-18T14:05:05.719Z,33.5
2018-06-18T14:05:55.739Z,33.4
2018-06-18T14:06:46.262Z,33.3
2018-06-18T14:07:36.360Z,33.2
2018-06-18T14:08:26.187Z,33.1
2018-06-18T14:09:16.237Z,33
2018-06-18T14:10:06.239Z,32.9
2018-06-18T14:10:56.312Z,32.8
2018-06-18T14:11:46.105Z,32.7
2018-06-18T14:12:36.698Z,32.6
2018-06-18T14:13:26.513Z,32.5
2018-06-18T14:14:16.926Z,32.4
2018-06-18T14:15:06.643Z,32.3
2018-06-18T14:15:56.751Z,32.3
2018-06-18T14:16:47.055Z,32.2
2018-06-18T14:17:36.827Z,32.1
2018-06-18T14:18:26.883Z,32.1
2018-06-18T14:19:17.238Z,31.9
2018-06-18T14:20:07.071Z,31.9
2018-06-18T14:20:57.141Z,31.8
2018-06-18T14:21:47.152Z,31.8
2018-06-18T14:22:37.473Z,31.6
2018-06-18T14:23:27.280Z,31.6
2018-06-18T14:24:17.635Z,31.5
2018-06-18T14:25:07.683Z,31.4
2018-06-18T14:25:57.193Z,31.4
2018-06-18T14:26:47.517Z,31.3
2018-06-18T14:27:37.848Z,31.2
2018-06-18T14:28:28.010Z,31.1
2018-06-18T14:29:17.734Z,31.1
2018-06-18T14:30:07.791Z,30.9
2018-06-18T14:30:57.845Z,30.9
2018-06-18T14:31:48.230Z,30.8
2018-06-18T14:32:37.637Z,30.7
2018-06-18T14:33:28.309Z,30.6
2018-06-18T14:34:18.098Z,30.6
2018-06-18T14:35:08.193Z,30.5
2018-06-18T14:35:57.967Z,30.4
2018-06-18T14:36:48.605Z,30.3
2018-06-18T14:37:38.647Z,30.2
2018-06-18T14:38:28.733Z,30.1
2018-06-18T14:39:18.542Z,30.1
2018-06-18T14:40:09.024Z,30
2018-06-18T14:40:58.615Z,29.9
2018-06-18T14:41:48.710Z,29.9
2018-06-18T14:42:39.145Z,29.9
2018-06-18T14:43:28.820Z,29.8
2018-06-18T14:44:19.161Z,29.8
2018-06-18T14:45:09.349Z,29.8
2018-06-18T14:46:00.292Z,29.7
2018-06-18T14:46:49.069Z,29.7
2018-06-18T14:47:39.821Z,29.6
2018-06-18T14:48:31.164Z,29.6
2018-06-18T14:49:19.284Z,29.5
2018-06-18T14:50:09.614Z,29.4
2018-06-18T14:50:59.685Z,29.4
2018-06-18T14:51:49.475Z,29.3
2018-06-18T14:52:40.191Z,29.3
2018-06-18T14:53:29.848Z,29.3
2018-06-18T14:54:20.263Z,29.3
2018-06-18T14:55:09.989Z,29.2
2018-06-18T14:55:59.993Z,29.1
2018-06-18T14:56:50.586Z,29.1
2018-06-18T14:57:40.158Z,29
2018-06-18T14:58:29.966Z,29
2018-06-18T14:59:19.922Z,28.9
2018-06-18T15:00:10.428Z,28.9
2018-06-18T15:00:59.876Z,28.9
2018-06-18T15:01:50.278Z,28.8
2018-06-18T15:02:40.602Z,28.8
2018-06-18T15:03:30.624Z,28.8
2018-06-18T15:04:20.786Z,28.8
2018-06-18T15:05:10.504Z,28.8
2018-06-18T15:06:00.599Z,28.8
2018-06-18T15:06:50.338Z,28.7
2018-06-18T15:07:40.672Z,28.7
2018-06-18T15:08:31.440Z,28.6
2018-06-18T15:09:21.953Z,28.6
2018-06-18T15:10:11.114Z,28.6
2018-06-18T15:11:00.928Z,28.6
2018-06-18T15:11:51.285Z,28.6
2018-06-18T15:12:41.823Z,28.5
2018-06-18T15:13:31.135Z,28.5
2018-06-18T15:14:21.185Z,28.4
2018-06-18T15:15:11.554Z,28.4
2018-06-18T15:16:02.187Z,28.4
2018-06-18T15:16:51.395Z,28.3
2018-06-18T15:17:41.450Z,28.3
2018-06-18T15:18:31.285Z,28.3
2018-06-18T15:19:22.345Z,28.3
2018-06-18T15:20:11.366Z,28.3
2018-06-18T15:21:01.972Z,28.3
2018-06-18T15:21:51.775Z,28.2
2018-06-18T15:22:42.116Z,28.2
2018-06-18T15:23:32.165Z,28.2
2018-06-18T15:24:22.227Z,28.1
2018-06-18T15:25:12.707Z,28.1
2018-06-18T15:26:02.457Z,28.1
2018-06-18T15:26:53.765Z,28.1
2018-06-18T15:27:42.485Z,28.1
2018-06-18T15:28:32.076Z,28
2018-06-18T15:29:22.613Z,28
2018-06-18T15:30:12.405Z,27.9
2018-06-18T15:31:02.780Z,27.9
2018-06-18T15:31:52.272Z,27.9
2018-06-18T15:32:42.887Z,27.9
2018-06-18T15:33:32.916Z,27.9
2018-06-18T15:36:53.212Z,27.8
2018-06-18T15:37:42.794Z,27.8
2018-06-18T15:38:34.191Z,27.7
2018-06-18T15:39:23.100Z,27.7
2018-06-18T15:40:13.441Z,27.7
2018-06-18T15:41:03.252Z,27.6
2018-06-18T15:41:53.630Z,27.6
2018-06-18T15:42:43.658Z,27.6
2018-06-18T15:43:33.416Z,27.6
2018-06-18T15:44:24.472Z,27.6
2018-06-18T15:45:13.545Z,27.6
2018-06-18T15:46:03.047Z,27.6
2018-06-18T15:46:53.941Z,27.5
2018-06-18T15:47:44.009Z,27.5
2018-06-18T15:48:33.846Z,27.4
2018-06-18T15:49:24.143Z,27.5
2018-06-18T15:50:13.917Z,27.4
2018-06-18T15:51:04.255Z,27.4
2018-06-18T15:51:54.033Z,27.4
2018-06-18T15:52:44.099Z,27.4
2018-06-18T15:53:34.183Z,27.4
2018-06-18T15:54:24.514Z,27.4
2018-06-18T15:55:14.569Z,27.4
2018-06-18T15:56:04.382Z,27.3
2018-06-18T15:56:55.303Z,27.3
2018-06-18T15:57:44.506Z,27.3
2018-06-18T15:58:34.591Z,27.3
2018-06-18T15:59:24.353Z,27.3
2018-06-18T16:00:14.964Z,27.3
2018-06-18T16:01:04.751Z,27.3
2018-06-18T16:01:55.095Z,27.3
2018-06-18T16:02:45.149Z,27.3
2018-06-18T16:03:35.228Z,27.2
2018-06-18T16:04:25.304Z,27.2
2018-06-18T16:05:14.826Z,27.2
2018-06-18T16:06:04.837Z,27.2
2018-06-18T16:06:55.457Z,27.2
2018-06-18T16:07:45.004Z,27.1
2018-06-18T16:08:35.576Z,27.1
2018-06-18T16:09:25.369Z,27.1
2018-06-18T16:10:15.152Z,27.1
2018-06-18T16:11:05.813Z,27.1
2018-06-18T16:11:55.573Z,27.1
2018-06-18T16:12:45.331Z,27.1
2018-06-18T16:13:35.711Z,27.1
2018-06-18T16:14:25.844Z,27.1
2018-06-18T16:15:15.840Z,27
2018-06-18T16:16:05.595Z,27
2018-06-18T16:16:55.653Z,27
2018-06-18T16:17:46.296Z,27
2018-06-18T16:18:36.336Z,27
2018-06-18T16:19:26.154Z,26.9
2018-06-18T16:20:15.933Z,26.9
2018-06-18T16:21:06.546Z,26.9
2018-06-18T16:21:56.602Z,26.9
2018-06-18T16:22:46.661Z,26.9
2018-06-18T16:23:36.711Z,26.9
2018-06-18T16:24:26.521Z,26.9
2018-06-18T16:25:16.316Z,26.9
2018-06-18T16:26:06.424Z,26.9
2018-06-18T16:26:56.688Z,26.9
2018-06-18T16:27:46.478Z,26.8
2018-06-18T16:28:36.555Z,26.8
2018-06-18T16:29:26.612Z,26.8